createdAt,value
2023-07-15T00:01:24.538Z,69.30
2023-07-15T00:03:53.392Z,69.70
2023-07-15T00:06:22.437Z,70.40
2023-07-15T00:08:50.190Z,69.90
2023-07-15T00:11:21.228Z,69.00
2023-07-15T00:13:48.184Z,69.30
2023-07-15T00:16:15.278Z,69.70
2023-07-15T00:18:42.609Z,70.30
2023-07-15T00:21:23.923Z,70.90
2023-07-15T00:23:56.654Z,70.70
2023-07-15T00:26:25.588Z,71.30
2023-07-15T00:28:53.016Z,71.60
2023-07-15T00:31:21.071Z,71.10
2023-07-15T00:33:48.528Z,71.60
2023-07-15T00:36:17.015Z,71.90
2023-07-15T00:38:45.090Z,71.90
2023-07-15T00:41:29.854Z,71.90
2023-07-15T00:44:07.978Z,72.30
2023-07-15T00:46:50.236Z,72.30
2023-07-15T00:49:31.766Z,71.80
2023-07-15T00:52:03.720Z,71.90
2023-07-15T00:54:36.502Z,72.00
2023-07-15T00:57:04.335Z,72.10
2023-07-15T00:59:32.032Z,71.90
2023-07-15T01:01:59.419Z,72.00
2023-07-15T01:04:26.362Z,72.10
2023-07-15T01:06:54.995Z,72.30
2023-07-15T01:09:23.678Z,72.40
2023-07-15T01:11:50.572Z,72.30
2023-07-15T01:14:17.560Z,72.50
2023-07-15T01:16:49.072Z,72.80
2023-07-15T01:19:20.121Z,72.80
2023-07-15T01:21:52.179Z,72.90
2023-07-15T01:24:22.563Z,72.80
2023-07-15T01:27:03.176Z,72.60
2023-07-15T01:29:30.291Z,72.40
2023-07-15T01:31:57.258Z,72.50
2023-07-15T01:34:24.409Z,72.50
2023-07-15T01:36:52.256Z,72.50
2023-07-15T01:39:19.257Z,72.70
2023-07-15T01:41:46.122Z,72.50
2023-07-15T01:44:13.945Z,72.20
2023-07-15T01:46:41.284Z,72.30
2023-07-15T01:49:09.917Z,72.70
2023-07-15T01:51:37.021Z,73.00
2023-07-15T01:54:04.624Z,73.10
2023-07-15T01:56:31.812Z,73.40
2023-07-15T01:59:00.160Z,73.40
2023-07-15T02:01:28.174Z,73.20
2023-07-15T02:03:55.614Z,73.30
2023-07-15T02:06:23.335Z,73.00
2023-07-15T02:08:50.469Z,73.50
2023-07-15T02:11:17.726Z,73.60
2023-07-15T02:13:44.662Z,73.50
2023-07-15T02:16:11.621Z,73.50
2023-07-15T02:18:38.572Z,74.00
2023-07-15T02:21:05.703Z,74.20
2023-07-15T02:23:32.618Z,74.20
2023-07-15T02:25:59.787Z,74.20
2023-07-15T02:28:28.409Z,74.00
2023-07-15T02:30:56.753Z,74.20
2023-07-15T02:33:25.363Z,74.60
2023-07-15T02:35:53.057Z,74.60
2023-07-15T02:38:20.688Z,74.40
2023-07-15T02:40:49.555Z,74.30
2023-07-15T02:43:17.056Z,74.10
2023-07-15T02:45:43.959Z,74.00
2023-07-15T02:48:12.090Z,74.20
2023-07-15T02:50:39.023Z,74.10
2023-07-15T02:53:06.034Z,73.80
2023-07-15T02:55:32.961Z,73.40
2023-07-15T02:58:00.234Z,73.80
2023-07-15T03:00:27.733Z,73.80
2023-07-15T03:02:54.967Z,74.20
2023-07-15T03:05:22.088Z,74.20
2023-07-15T03:07:49.529Z,74.40
2023-07-15T03:10:16.799Z,74.30
2023-07-15T03:12:49.105Z,74.30
2023-07-15T03:15:17.069Z,74.30
2023-07-15T03:17:44.862Z,74.20
2023-07-15T03:20:21.359Z,74.40
2023-07-15T03:22:53.346Z,74.00
2023-07-15T03:25:21.212Z,73.70
2023-07-15T03:27:52.419Z,73.50
2023-07-15T03:30:19.927Z,73.40
2023-07-15T03:32:47.831Z,73.50
2023-07-15T03:35:16.237Z,73.20
2023-07-15T03:37:45.562Z,73.70
2023-07-15T03:40:13.744Z,73.40
2023-07-15T03:42:41.796Z,73.30
2023-07-15T03:45:09.865Z,73.80
2023-07-15T03:47:37.262Z,73.80
2023-07-15T03:50:08.407Z,73.80
2023-07-15T03:52:35.374Z,74.00
2023-07-15T03:55:04.331Z,74.10
2023-07-15T03:57:31.211Z,73.70
2023-07-15T03:59:58.173Z,73.90
2023-07-15T04:02:25.230Z,74.10
2023-07-15T04:04:52.219Z,74.20
2023-07-15T04:07:19.551Z,74.20
2023-07-15T04:09:46.758Z,74.20
2023-07-15T04:12:13.628Z,74.10
2023-07-15T04:14:40.516Z,73.80
2023-07-15T04:17:07.451Z,73.90
2023-07-15T04:19:34.476Z,74.20
2023-07-15T04:22:01.430Z,74.50
2023-07-15T04:24:28.255Z,74.50
2023-07-15T04:26:55.149Z,74.90
2023-07-15T04:29:22.371Z,75.00
2023-07-15T04:31:49.353Z,75.10
2023-07-15T04:34:16.415Z,75.30
2023-07-15T04:36:43.272Z,75.50
2023-07-15T04:39:10.323Z,75.60
2023-07-15T04:41:37.128Z,75.90
2023-07-15T04:44:04.064Z,75.90
2023-07-15T04:46:32.070Z,76.10
2023-07-15T04:48:59.282Z,76.20
2023-07-15T04:51:26.466Z,76.40
2023-07-15T04:53:53.500Z,76.50
2023-07-15T04:56:20.408Z,76.80
2023-07-15T04:58:47.322Z,77.10
2023-07-15T05:01:14.767Z,77.00
2023-07-15T05:03:42.809Z,76.90
2023-07-15T05:06:10.302Z,76.70
2023-07-15T05:08:38.687Z,76.90
2023-07-15T05:11:05.865Z,77.00
2023-07-15T05:13:32.997Z,77.40
2023-07-15T05:16:00.513Z,77.60
2023-07-15T05:18:27.536Z,77.60
2023-07-15T05:20:54.502Z,77.20
2023-07-15T05:23:23.289Z,76.90
2023-07-15T05:25:50.199Z,76.80
2023-07-15T05:28:17.048Z,76.90
2023-07-15T05:30:43.925Z,76.80
2023-07-15T05:33:10.849Z,76.80
2023-07-15T05:35:37.799Z,76.50
2023-07-15T05:38:04.807Z,76.50
2023-07-15T05:40:31.903Z,76.10
2023-07-15T05:42:58.903Z,75.80
2023-07-15T05:45:25.777Z,75.60
2023-07-15T05:47:52.712Z,75.50
2023-07-15T05:50:19.742Z,75.80
2023-07-15T05:52:46.614Z,75.30
2023-07-15T05:55:13.952Z,75.20
2023-07-15T05:57:40.935Z,75.10
2023-07-15T06:00:10.876Z,75.10
2023-07-15T06:02:42.528Z,74.40
2023-07-15T06:05:10.953Z,74.20
2023-07-15T06:07:37.890Z,73.90
2023-07-15T06:10:05.290Z,73.70
2023-07-15T06:12:32.223Z,73.30
2023-07-15T06:14:59.264Z,73.50
2023-07-15T06:17:26.329Z,72.90
2023-07-15T06:19:53.372Z,71.40
2023-07-15T06:22:20.372Z,71.30
2023-07-15T06:24:48.620Z,70.40
2023-07-15T06:27:15.442Z,71.60
2023-07-15T06:29:43.319Z,71.70
2023-07-15T06:32:10.210Z,71.00
2023-07-15T06:34:37.133Z,70.50
2023-07-15T06:37:04.101Z,69.80
2023-07-15T06:39:31.165Z,69.50
2023-07-15T06:41:58.264Z,69.30
2023-07-15T06:44:25.715Z,69.50
2023-07-15T06:46:52.852Z,68.20
2023-07-15T06:49:19.891Z,67.80
2023-07-15T06:51:46.735Z,68.50
2023-07-15T06:54:13.916Z,66.40
2023-07-15T06:56:40.913Z,66.90
2023-07-15T06:59:08.454Z,67.30
2023-07-15T07:01:35.684Z,66.50
2023-07-15T07:04:03.158Z,63.20
2023-07-15T07:06:30.178Z,63.90
2023-07-15T07:08:57.044Z,64.40
2023-07-15T07:11:24.001Z,65.50
2023-07-15T07:13:51.000Z,65.90
2023-07-15T07:16:18.308Z,64.80
2023-07-15T07:18:46.147Z,65.40
2023-07-15T07:21:13.360Z,63.80
2023-07-15T07:23:40.504Z,64.90
2023-07-15T07:26:07.345Z,63.40
2023-07-15T07:28:45.282Z,65.10
2023-07-15T07:31:14.387Z,64.50
2023-07-15T07:33:42.785Z,64.60
2023-07-15T07:36:10.210Z,63.80
2023-07-15T07:38:37.178Z,63.70
2023-07-15T07:41:12.206Z,62.80
2023-07-15T07:43:40.653Z,62.80
2023-07-15T07:46:09.648Z,64.10
2023-07-15T07:48:36.794Z,62.90
2023-07-15T07:51:04.018Z,63.80
2023-07-15T07:53:31.538Z,64.10
2023-07-15T07:55:58.946Z,61.90
2023-07-15T07:58:25.972Z,63.60
2023-07-15T08:00:53.028Z,63.20
2023-07-15T08:03:20.199Z,63.80
2023-07-15T08:05:48.859Z,63.30
2023-07-15T08:08:16.987Z,61.60
2023-07-15T08:10:44.319Z,61.40
2023-07-15T08:13:11.531Z,61.80
2023-07-15T08:15:39.205Z,62.80
2023-07-15T08:18:07.920Z,62.40
2023-07-15T08:20:35.535Z,61.30
2023-07-15T08:23:02.628Z,62.80
2023-07-15T08:25:30.530Z,60.80
2023-07-15T08:27:57.672Z,61.50
2023-07-15T08:30:24.715Z,61.70
2023-07-15T08:32:52.134Z,61.00
2023-07-15T08:35:19.097Z,63.00
2023-07-15T08:37:45.963Z,61.60
2023-07-15T08:40:13.812Z,61.70
2023-07-15T08:42:41.652Z,62.70
2023-07-15T08:45:09.099Z,61.90
2023-07-15T08:47:37.680Z,62.30
2023-07-15T08:50:11.428Z,60.80
2023-07-15T08:52:39.704Z,59.30
2023-07-15T08:55:07.603Z,58.60
2023-07-15T08:57:35.949Z,59.10
2023-07-15T09:00:11.680Z,57.50
2023-07-15T09:02:39.719Z,58.70
2023-07-15T09:05:08.033Z,58.20
2023-07-15T09:07:49.998Z,57.80
2023-07-15T09:10:17.052Z,56.70
2023-07-15T09:12:48.143Z,55.40
2023-07-15T09:15:15.590Z,56.80
2023-07-15T09:17:51.040Z,57.30
2023-07-15T09:20:21.757Z,55.90
2023-07-15T09:22:57.353Z,54.80
2023-07-15T09:25:25.602Z,55.70
2023-07-15T09:27:53.453Z,55.30
2023-07-15T09:30:21.167Z,55.80
2023-07-15T09:32:48.745Z,55.70
2023-07-15T09:35:16.000Z,57.10
2023-07-15T09:37:43.038Z,55.70
2023-07-15T09:40:10.481Z,56.10
2023-07-15T09:42:56.025Z,56.00
2023-07-15T09:45:34.467Z,57.50
2023-07-15T09:48:02.566Z,56.70
2023-07-15T09:50:29.968Z,56.30
2023-07-15T09:52:59.561Z,56.80
2023-07-15T09:55:28.111Z,55.30
2023-07-15T09:58:01.825Z,55.90
2023-07-15T10:00:33.411Z,55.80
2023-07-15T10:03:02.643Z,54.80
2023-07-15T10:05:30.077Z,55.80
2023-07-15T10:07:57.101Z,55.10
2023-07-15T10:10:24.041Z,55.80
2023-07-15T10:12:51.877Z,55.90
2023-07-15T10:15:19.282Z,54.20
2023-07-15T10:17:48.181Z,52.40
2023-07-15T10:20:19.729Z,53.10
2023-07-15T10:22:49.316Z,55.00
2023-07-15T10:25:17.271Z,55.40
2023-07-15T10:27:44.352Z,54.80
2023-07-15T10:30:25.219Z,53.10
2023-07-15T10:33:10.049Z,52.90
2023-07-15T10:35:43.313Z,52.40
2023-07-15T10:38:27.816Z,52.60
2023-07-15T10:41:01.210Z,54.40
2023-07-15T10:43:34.362Z,52.20
2023-07-15T10:46:08.537Z,52.10
2023-07-15T10:48:36.559Z,51.40
2023-07-15T10:51:11.577Z,52.20
2023-07-15T10:53:39.419Z,53.30
2023-07-15T10:56:07.410Z,52.20
2023-07-15T10:58:36.006Z,52.70
2023-07-15T11:01:08.039Z,52.30
2023-07-15T11:03:43.399Z,51.90
2023-07-15T11:06:11.375Z,52.00
2023-07-15T11:08:40.501Z,54.00
2023-07-15T11:11:11.368Z,53.10
2023-07-15T11:13:40.500Z,53.60
2023-07-15T11:16:07.976Z,52.70
2023-07-15T11:18:35.102Z,51.50
2023-07-15T11:21:02.760Z,52.10
2023-07-15T11:23:30.740Z,52.30
2023-07-15T11:25:58.681Z,52.30
2023-07-15T11:28:25.970Z,53.40
2023-07-15T11:30:53.214Z,52.70
2023-07-15T11:33:20.214Z,50.80
2023-07-15T11:35:47.518Z,51.80
2023-07-15T11:38:28.888Z,51.00
2023-07-15T11:40:57.429Z,52.00
2023-07-15T11:43:26.167Z,51.00
2023-07-15T11:45:57.717Z,50.30
2023-07-15T11:48:26.773Z,51.00
2023-07-15T11:51:09.019Z,51.00
2023-07-15T11:53:38.325Z,52.10
2023-07-15T11:56:07.269Z,51.70
2023-07-15T11:58:46.584Z,51.00
2023-07-15T12:01:18.897Z,50.20
2023-07-15T12:03:47.134Z,50.80
2023-07-15T12:06:28.763Z,49.90
2023-07-15T12:09:07.255Z,50.30
2023-07-15T12:11:35.699Z,49.00
2023-07-15T12:14:04.076Z,49.30
2023-07-15T12:16:32.549Z,49.30
2023-07-15T12:19:01.366Z,49.30
2023-07-15T12:21:28.967Z,49.20
2023-07-15T12:23:59.443Z,50.40
2023-07-15T12:26:26.674Z,50.20
2023-07-15T12:28:53.745Z,49.50
2023-07-15T12:31:20.972Z,49.40
2023-07-15T12:33:48.236Z,48.30
2023-07-15T12:36:17.214Z,48.20
2023-07-15T12:38:45.291Z,47.60
2023-07-15T12:41:13.879Z,47.70
2023-07-15T12:43:41.770Z,47.50
2023-07-15T12:46:09.049Z,47.10
2023-07-15T12:48:37.219Z,46.50
2023-07-15T12:51:04.162Z,47.10
2023-07-15T12:53:31.072Z,47.00
2023-07-15T12:55:57.992Z,46.70
2023-07-15T12:58:25.056Z,46.20
2023-07-15T13:00:52.028Z,47.30
2023-07-15T13:03:19.702Z,47.80
2023-07-15T13:05:46.972Z,47.50
2023-07-15T13:08:16.502Z,47.90
2023-07-15T13:10:46.563Z,48.30
2023-07-15T13:13:13.659Z,48.70
2023-07-15T13:15:45.552Z,48.50
2023-07-15T13:18:13.748Z,47.00
2023-07-15T13:20:40.801Z,48.20
2023-07-15T13:23:09.713Z,47.60
2023-07-15T13:25:37.042Z,46.70
2023-07-15T13:28:05.034Z,46.80
2023-07-15T13:30:31.977Z,46.40
2023-07-15T13:32:58.998Z,46.30
2023-07-15T13:35:26.215Z,48.30
2023-07-15T13:37:53.121Z,47.40
2023-07-15T13:40:21.051Z,47.40
2023-07-15T13:42:50.770Z,47.20
2023-07-15T13:45:18.357Z,46.70
2023-07-15T13:47:45.745Z,45.60
2023-07-15T13:50:12.924Z,45.60
2023-07-15T13:52:39.915Z,46.00
2023-07-15T13:55:07.228Z,46.30
2023-07-15T13:57:34.085Z,45.80
2023-07-15T14:00:00.912Z,46.20
2023-07-15T14:02:27.883Z,46.10
2023-07-15T14:04:54.746Z,46.50
2023-07-15T14:07:21.740Z,46.40
2023-07-15T14:09:49.106Z,46.70
2023-07-15T14:12:16.039Z,45.90
2023-07-15T14:14:42.989Z,47.20
2023-07-15T14:17:10.062Z,45.30
2023-07-15T14:19:36.972Z,46.20
2023-07-15T14:22:15.212Z,44.70
2023-07-15T14:24:42.773Z,45.10
2023-07-15T14:27:11.608Z,45.30
2023-07-15T14:29:41.626Z,45.90
2023-07-15T14:32:08.735Z,45.40
2023-07-15T14:34:36.085Z,44.30
2023-07-15T14:37:03.064Z,45.30
2023-07-15T14:39:30.164Z,45.40
2023-07-15T14:41:56.975Z,45.90
2023-07-15T14:44:23.893Z,45.20
2023-07-15T14:46:50.743Z,46.70
2023-07-15T14:49:17.655Z,47.10
2023-07-15T14:51:44.512Z,45.70
2023-07-15T14:54:11.750Z,46.30
2023-07-15T14:56:38.650Z,45.10
2023-07-15T14:59:05.580Z,46.10
2023-07-15T15:01:34.729Z,46.70
2023-07-15T15:04:01.832Z,47.50
2023-07-15T15:06:29.254Z,46.80
2023-07-15T15:08:56.171Z,49.10
2023-07-15T15:11:23.726Z,48.50
2023-07-15T15:13:50.749Z,48.40
2023-07-15T15:16:18.120Z,48.60
2023-07-15T15:18:46.710Z,48.70
2023-07-15T15:21:15.462Z,47.20
2023-07-15T15:23:43.235Z,47.20
2023-07-15T15:26:12.388Z,47.60
2023-07-15T15:28:43.782Z,46.60
2023-07-15T15:31:11.255Z,46.00
2023-07-15T15:33:38.425Z,45.20
2023-07-15T15:36:05.552Z,45.40
2023-07-15T15:38:32.453Z,45.90
2023-07-15T15:40:59.344Z,45.90
2023-07-15T15:43:26.284Z,46.70
2023-07-15T15:45:53.693Z,47.20
2023-07-15T15:48:20.666Z,47.20
2023-07-15T15:50:47.573Z,46.20
2023-07-15T15:53:14.625Z,47.00
2023-07-15T15:55:41.610Z,47.60
2023-07-15T15:58:08.929Z,46.70
2023-07-15T16:00:36.105Z,46.00
2023-07-15T16:03:04.458Z,46.00
2023-07-15T16:05:31.610Z,45.50
2023-07-15T16:07:58.485Z,46.50
2023-07-15T16:10:25.388Z,45.80
2023-07-15T16:12:52.320Z,45.70
2023-07-15T16:15:19.388Z,46.20
2023-07-15T16:17:46.368Z,46.40
2023-07-15T16:20:13.427Z,46.80
2023-07-15T16:22:40.801Z,46.70
2023-07-15T16:25:08.210Z,46.40
2023-07-15T16:27:35.284Z,46.40
2023-07-15T16:30:02.243Z,46.10
2023-07-15T16:32:29.285Z,45.60
2023-07-15T16:34:57.721Z,46.30
2023-07-15T16:37:25.187Z,46.90
2023-07-15T16:39:52.556Z,47.10
2023-07-15T16:42:19.503Z,46.80
2023-07-15T16:44:46.715Z,46.90
2023-07-15T16:47:13.921Z,47.70
2023-07-15T16:49:44.259Z,48.00
2023-07-15T16:52:11.293Z,47.90
2023-07-15T16:54:38.277Z,48.60
2023-07-15T16:57:05.336Z,49.30
2023-07-15T16:59:32.381Z,48.50
2023-07-15T17:01:59.282Z,48.80
2023-07-15T17:04:26.257Z,48.90
2023-07-15T17:06:53.501Z,48.70
2023-07-15T17:09:20.448Z,48.10
2023-07-15T17:11:47.299Z,48.50
2023-07-15T17:14:14.261Z,49.10
2023-07-15T17:16:42.128Z,49.20
2023-07-15T17:19:09.166Z,49.00
2023-07-15T17:21:36.270Z,48.90
2023-07-15T17:24:03.302Z,49.00
2023-07-15T17:26:30.533Z,49.90
2023-07-15T17:28:58.421Z,50.20
2023-07-15T17:31:25.332Z,50.40
2023-07-15T17:33:52.352Z,50.40
2023-07-15T17:36:20.803Z,50.50
2023-07-15T17:38:47.880Z,50.40
2023-07-15T17:41:14.933Z,50.80
2023-07-15T17:43:42.757Z,50.90
2023-07-15T17:46:09.866Z,51.40
2023-07-15T17:48:36.906Z,51.60
2023-07-15T17:51:03.905Z,51.90
2023-07-15T17:53:30.951Z,51.90
2023-07-15T17:55:57.903Z,52.40
2023-07-15T17:58:24.985Z,52.70
2023-07-15T18:00:51.931Z,52.90
2023-07-15T18:03:18.963Z,52.70
2023-07-15T18:05:45.957Z,53.50
2023-07-15T18:08:14.946Z,54.40
2023-07-15T18:10:44.221Z,55.60
2023-07-15T18:13:11.119Z,55.60
2023-07-15T18:15:38.123Z,55.50
2023-07-15T18:18:05.265Z,54.80
2023-07-15T18:20:32.175Z,54.90
2023-07-15T18:22:59.069Z,55.60
2023-07-15T18:25:27.292Z,56.40
2023-07-15T18:27:54.278Z,56.80
2023-07-15T18:30:24.684Z,56.90
2023-07-15T18:32:51.683Z,57.20
2023-07-15T18:35:18.998Z,57.80
2023-07-15T18:37:45.929Z,57.80
2023-07-15T18:40:13.037Z,58.20
2023-07-15T18:42:39.846Z,58.10
2023-07-15T18:45:07.429Z,58.20
2023-07-15T18:47:34.479Z,58.40
2023-07-15T18:50:01.670Z,58.40
2023-07-15T18:52:28.669Z,58.40
2023-07-15T18:54:55.582Z,58.90
2023-07-15T18:57:23.598Z,59.00
2023-07-15T18:59:51.552Z,59.50
2023-07-15T19:02:18.573Z,59.70
2023-07-15T19:04:48.383Z,59.30
2023-07-15T19:07:15.289Z,59.90
2023-07-15T19:09:42.198Z,59.80
2023-07-15T19:12:10.353Z,60.00
2023-07-15T19:14:37.587Z,60.00
2023-07-15T19:17:04.979Z,61.10
2023-07-15T19:19:32.323Z,61.40
2023-07-15T19:21:59.138Z,61.30
2023-07-15T19:24:26.008Z,60.70
2023-07-15T19:26:53.498Z,61.00
2023-07-15T19:29:20.516Z,61.30
2023-07-15T19:31:47.504Z,61.40
2023-07-15T19:34:14.925Z,61.80
2023-07-15T19:36:41.815Z,62.10
2023-07-15T19:39:08.820Z,62.40
2023-07-15T19:41:35.907Z,61.90
2023-07-15T19:44:03.362Z,62.10
2023-07-15T19:46:30.529Z,62.00
2023-07-15T19:48:57.424Z,61.90
2023-07-15T19:51:35.611Z,61.70
2023-07-15T19:54:11.399Z,61.80
2023-07-15T19:56:38.306Z,62.20
2023-07-15T19:59:07.043Z,62.20
2023-07-15T20:01:35.043Z,62.60
2023-07-15T20:04:04.016Z,62.50
2023-07-15T20:06:31.326Z,62.60
2023-07-15T20:08:58.503Z,62.40
2023-07-15T20:11:25.366Z,62.50
2023-07-15T20:13:52.363Z,62.80
2023-07-15T20:16:19.512Z,62.70
2023-07-15T20:18:46.902Z,62.80
2023-07-15T20:21:13.861Z,62.80
2023-07-15T20:23:40.999Z,63.10
2023-07-15T20:26:07.829Z,63.30
2023-07-15T20:28:34.712Z,63.30
2023-07-15T20:31:02.982Z,63.40
2023-07-15T20:33:30.554Z,63.40
2023-07-15T20:35:57.399Z,63.30
2023-07-15T20:38:25.194Z,63.40
2023-07-15T20:40:56.915Z,63.50
2023-07-15T20:43:26.131Z,63.40
2023-07-15T20:45:53.300Z,63.60
2023-07-15T20:48:20.445Z,63.80
2023-07-15T20:50:47.354Z,64.10
2023-07-15T20:53:14.330Z,63.90
2023-07-15T20:55:42.022Z,64.60
2023-07-15T20:58:09.338Z,64.50
2023-07-15T21:00:36.548Z,65.00
2023-07-15T21:03:03.546Z,64.60
2023-07-15T21:05:30.946Z,65.00
2023-07-15T21:07:57.833Z,64.90
2023-07-15T21:10:24.888Z,64.70
2023-07-15T21:12:51.882Z,64.60
2023-07-15T21:15:19.667Z,65.20
2023-07-15T21:17:46.509Z,65.70
2023-07-15T21:20:16.368Z,65.60
2023-07-15T21:22:43.937Z,65.50
2023-07-15T21:25:11.049Z,65.70
2023-07-15T21:27:38.073Z,66.20
2023-07-15T21:30:05.684Z,66.10
2023-07-15T21:32:32.782Z,65.70
2023-07-15T21:34:59.918Z,66.10
2023-07-15T21:37:26.806Z,66.70
2023-07-15T21:39:53.709Z,65.30
2023-07-15T21:42:20.645Z,64.80
2023-07-15T21:44:47.547Z,64.90
2023-07-15T21:47:14.380Z,65.20
2023-07-15T21:49:41.288Z,65.40
2023-07-15T21:52:08.455Z,65.80
2023-07-15T21:54:35.359Z,65.80
2023-07-15T21:57:02.410Z,65.70
2023-07-15T21:59:29.316Z,66.60
2023-07-15T22:01:56.245Z,66.80
2023-07-15T22:04:23.479Z,66.40
2023-07-15T22:06:50.474Z,65.40
2023-07-15T22:09:18.102Z,65.90
2023-07-15T22:11:45.336Z,65.20
2023-07-15T22:14:12.305Z,65.60
2023-07-15T22:16:39.307Z,65.00
2023-07-15T22:19:06.314Z,64.20
2023-07-15T22:21:35.657Z,64.20
2023-07-15T22:24:03.012Z,64.90
2023-07-15T22:26:31.886Z,66.00
2023-07-15T22:28:58.938Z,66.70
2023-07-15T22:31:26.006Z,66.70
2023-07-15T22:33:53.057Z,66.80
2023-07-15T22:36:20.126Z,67.20
2023-07-15T22:38:47.140Z,67.40
2023-07-15T22:41:14.047Z,67.50
2023-07-15T22:43:40.970Z,67.40
2023-07-15T22:46:08.057Z,67.00
2023-07-15T22:48:35.054Z,67.10
2023-07-15T22:51:01.957Z,66.90
2023-07-15T22:53:28.816Z,67.40
2023-07-15T22:55:55.982Z,68.00
2023-07-15T22:58:23.288Z,68.60
2023-07-15T23:00:54.459Z,68.90
2023-07-15T23:03:24.273Z,68.80
2023-07-15T23:05:51.464Z,68.40
2023-07-15T23:08:18.527Z,68.70
2023-07-15T23:10:48.239Z,69.20
2023-07-15T23:13:15.429Z,69.00
2023-07-15T23:15:42.339Z,68.50
2023-07-15T23:18:09.622Z,68.60
2023-07-15T23:20:36.654Z,68.50
2023-07-15T23:23:15.689Z,68.80
2023-07-15T23:25:44.349Z,69.00
2023-07-15T23:28:11.419Z,69.30
2023-07-15T23:30:38.420Z,69.40
2023-07-15T23:33:05.507Z,69.40
2023-07-15T23:35:32.693Z,69.80
2023-07-15T23:38:00.046Z,69.70
2023-07-15T23:40:27.317Z,69.50
2023-07-15T23:42:54.297Z,69.80
2023-07-15T23:45:21.145Z,69.90
2023-07-15T23:47:48.122Z,70.10
2023-07-15T23:50:15.156Z,70.70
2023-07-15T23:52:42.092Z,70.70
2023-07-15T23:55:09.669Z,70.60
2023-07-15T23:57:36.450Z,70.70
